KHIB/HIB METAR and TAF weather

Enter ICAO airport designator
Station Type Date Time Source
KHIB METAR 2019/04/19 09:53 UTC NOAA

KHIB 190953Z AUTO 00000KT 10SM CLR M04/M05 A2998 RMK AO2 SLP168 I1000 T10441050


Station Type Date Time Source
KHIB Decoded METAR 2019/04/19 09:53 UTC NOAA

CHISHOLM-HIBBING AIRPORT, MN, United States (KHIB) 47-23N 92-50W 412M
Apr 19, 2019 - 05:53 AM EDT / 2019.04.19 0953 UTC
Wind: Calm:0
Visibility: 10 mile(s):0
Sky conditions: clear
Temperature: 24.1 F (-4.4 C)
Dew Point: 23.0 F (-5.0 C)
Relative Humidity: 95%
Pressure (altimeter): 29.98 in. Hg (1015 hPa)
ob: KHIB 190953Z AUTO 00000KT 10SM CLR M04/M05 A2998 RMK AO2 SLP168 I1000 T10441050
cycle: 10

Station Type Date Time Source
KHIB TAF 2019/04/19 06:39 UTC NOAA

TAF KHIB 190535Z 1906/2006 VRB03KT P6SM SKC
FM191000 VRB02KT 6SM BR SKC
FM191300 VRB04KT P6SM SKC
FM200000 22005KT P6SM FEW250

Example: see airport list